sensor_id;sensor_type;location;lat;lon;timestamp;temperature;humidity
23715;DHT22;12036;50.858;4.472;2023-09-19T00:02:23;16.20;99.90
23715;DHT22;12036;50.858;4.472;2023-09-19T00:04:49;16.20;99.90
23715;DHT22;12036;50.858;4.472;2023-09-19T00:07:15;16.20;99.90
23715;DHT22;12036;50.858;4.472;2023-09-19T00:09:41;16.20;99.90
23715;DHT22;12036;50.858;4.472;2023-09-19T00:12:09;16.30;99.90
23715;DHT22;12036;50.858;4.472;2023-09-19T00:14:35;16.30;99.90
23715;DHT22;12036;50.858;4.472;2023-09-19T00:17:04;16.20;99.90
23715;DHT22;12036;50.858;4.472;2023-09-19T00:19:37;16.20;99.90
23715;DHT22;12036;50.858;4.472;2023-09-19T00:22:08;16.20;99.90
23715;DHT22;12036;50.858;4.472;2023-09-19T00:24:33;16.10;99.90
23715;DHT22;12036;50.858;4.472;2023-09-19T00:26:59;16.20;99.90
23715;DHT22;12036;50.858;4.472;2023-09-19T00:29:25;16.20;99.90
23715;DHT22;12036;50.858;4.472;2023-09-19T00:31:55;16.20;99.90
23715;DHT22;12036;50.858;4.472;2023-09-19T00:34:22;16.10;99.90
23715;DHT22;12036;50.858;4.472;2023-09-19T00:36:48;16.10;99.90
23715;DHT22;12036;50.858;4.472;2023-09-19T00:39:13;16.10;99.90
23715;DHT22;12036;50.858;4.472;2023-09-19T00:41:39;16.10;99.90
23715;DHT22;12036;50.858;4.472;2023-09-19T00:44:06;16.10;99.90
23715;DHT22;12036;50.858;4.472;2023-09-19T00:46:32;16.10;99.90
23715;DHT22;12036;50.858;4.472;2023-09-19T00:48:58;16.00;99.90
23715;DHT22;12036;50.858;4.472;2023-09-19T00:51:26;16.10;99.90
23715;DHT22;12036;50.858;4.472;2023-09-19T00:53:53;16.00;99.90
23715;DHT22;12036;50.858;4.472;2023-09-19T00:56:19;16.00;99.90
23715;DHT22;12036;50.858;4.472;2023-09-19T00:58:46;15.90;99.90
23715;DHT22;12036;50.858;4.472;2023-09-19T01:01:15;15.90;99.90
23715;DHT22;12036;50.858;4.472;2023-09-19T01:03:41;15.90;99.90
23715;DHT22;12036;50.858;4.472;2023-09-19T01:06:07;15.90;99.90
23715;DHT22;12036;50.858;4.472;2023-09-19T01:08:36;15.90;99.90
23715;DHT22;12036;50.858;4.472;2023-09-19T01:11:20;16.00;99.90
23715;DHT22;12036;50.858;4.472;2023-09-19T01:17:03;16.00;99.90
23715;DHT22;12036;50.858;4.472;2023-09-19T01:20:03;15.90;99.90
23715;DHT22;12036;50.858;4.472;2023-09-19T01:22:46;15.80;99.90
23715;DHT22;12036;50.858;4.472;2023-09-19T01:25:28;15.80;99.90
23715;DHT22;12036;50.858;4.472;2023-09-19T01:28:31;15.80;99.90
23715;DHT22;12036;50.858;4.472;2023-09-19T01:31:02;15.80;99.90
23715;DHT22;12036;50.858;4.472;2023-09-19T01:33:47;15.70;99.90
23715;DHT22;12036;50.858;4.472;2023-09-19T01:36:16;15.80;99.90
23715;DHT22;12036;50.858;4.472;2023-09-19T01:38:42;15.80;99.90
23715;DHT22;12036;50.858;4.472;2023-09-19T01:41:12;15.70;99.90
23715;DHT22;12036;50.858;4.472;2023-09-19T01:43:42;15.70;99.90
23715;DHT22;12036;50.858;4.472;2023-09-19T01:46:33;15.70;99.90
23715;DHT22;12036;50.858;4.472;2023-09-19T01:49:13;15.70;99.90
23715;DHT22;12036;50.858;4.472;2023-09-19T01:51:51;15.60;99.90
23715;DHT22;12036;50.858;4.472;2023-09-19T01:54:27;15.60;99.90
23715;DHT22;12036;50.858;4.472;2023-09-19T01:59:54;15.60;99.90
23715;DHT22;12036;50.858;4.472;2023-09-19T02:02:23;15.50;99.90
23715;DHT22;12036;50.858;4.472;2023-09-19T02:04:50;15.50;99.90
23715;DHT22;12036;50.858;4.472;2023-09-19T02:07:17;15.50;99.90
23715;DHT22;12036;50.858;4.472;2023-09-19T02:09:42;15.50;99.90
23715;DHT22;12036;50.858;4.472;2023-09-19T02:12:11;15.50;99.90
23715;DHT22;12036;50.858;4.472;2023-09-19T02:14:37;15.50;99.90
23715;DHT22;12036;50.858;4.472;2023-09-19T02:17:03;15.50;99.90
23715;DHT22;12036;50.858;4.472;2023-09-19T02:19:37;15.50;99.90
23715;DHT22;12036;50.858;4.472;2023-09-19T02:22:04;15.50;99.90
23715;DHT22;12036;50.858;4.472;2023-09-19T02:24:36;15.50;99.90
23715;DHT22;12036;50.858;4.472;2023-09-19T02:27:01;15.50;99.90
23715;DHT22;12036;50.858;4.472;2023-09-19T02:29:30;15.50;99.90
23715;DHT22;12036;50.858;4.472;2023-09-19T02:31:55;15.50;99.90
23715;DHT22;12036;50.858;4.472;2023-09-19T02:34:22;15.60;99.90
23715;DHT22;12036;50.858;4.472;2023-09-19T02:36:48;15.50;99.90
23715;DHT22;12036;50.858;4.472;2023-09-19T02:39:13;15.50;99.90
23715;DHT22;12036;50.858;4.472;2023-09-19T02:41:39;15.60;99.90
23715;DHT22;12036;50.858;4.472;2023-09-19T02:44:07;15.50;99.90
23715;DHT22;12036;50.858;4.472;2023-09-19T02:46:34;15.60;99.90
23715;DHT22;12036;50.858;4.472;2023-09-19T02:49:01;15.60;99.90
23715;DHT22;12036;50.858;4.472;2023-09-19T02:51:30;15.60;99.90
23715;DHT22;12036;50.858;4.472;2023-09-19T02:53:56;15.70;99.90
23715;DHT22;12036;50.858;4.472;2023-09-19T02:56:22;15.70;99.90
23715;DHT22;12036;50.858;4.472;2023-09-19T02:58:48;15.70;99.90
23715;DHT22;12036;50.858;4.472;2023-09-19T03:01:13;15.80;99.90
23715;DHT22;12036;50.858;4.472;2023-09-19T03:03:44;15.80;99.90
23715;DHT22;12036;50.858;4.472;2023-09-19T03:06:10;15.80;99.90
23715;DHT22;12036;50.858;4.472;2023-09-19T03:08:38;15.80;99.90
23715;DHT22;12036;50.858;4.472;2023-09-19T03:11:05;15.80;99.90
23715;DHT22;12036;50.858;4.472;2023-09-19T03:13:32;15.80;99.90
23715;DHT22;12036;50.858;4.472;2023-09-19T03:15:58;15.80;99.90
23715;DHT22;12036;50.858;4.472;2023-09-19T03:18:26;15.70;99.90
23715;DHT22;12036;50.858;4.472;2023-09-19T03:20:58;15.70;99.90
23715;DHT22;12036;50.858;4.472;2023-09-19T03:23:27;15.70;99.90
23715;DHT22;12036;50.858;4.472;2023-09-19T03:25:56;15.60;99.90
23715;DHT22;12036;50.858;4.472;2023-09-19T03:28:22;15.70;99.90
23715;DHT22;12036;50.858;4.472;2023-09-19T03:31:05;15.70;99.90
23715;DHT22;12036;50.858;4.472;2023-09-19T03:33:31;15.70;99.90
23715;DHT22;12036;50.858;4.472;2023-09-19T03:35:58;15.70;99.90
23715;DHT22;12036;50.858;4.472;2023-09-19T03:38:25;15.70;99.90
23715;DHT22;12036;50.858;4.472;2023-09-19T03:40:51;15.70;99.90
23715;DHT22;12036;50.858;4.472;2023-09-19T03:43:16;15.60;99.90
23715;DHT22;12036;50.858;4.472;2023-09-19T03:45:43;15.60;99.90
23715;DHT22;12036;50.858;4.472;2023-09-19T03:48:11;15.50;99.90
23715;DHT22;12036;50.858;4.472;2023-09-19T03:50:37;15.40;99.90
23715;DHT22;12036;50.858;4.472;2023-09-19T03:53:03;15.40;99.90
23715;DHT22;12036;50.858;4.472;2023-09-19T03:55:29;15.40;99.90
23715;DHT22;12036;50.858;4.472;2023-09-19T03:57:57;15.30;99.90
23715;DHT22;12036;50.858;4.472;2023-09-19T04:00:23;15.20;99.90
23715;DHT22;12036;50.858;4.472;2023-09-19T04:02:52;15.20;99.90
23715;DHT22;12036;50.858;4.472;2023-09-19T04:05:18;15.20;99.90
23715;DHT22;12036;50.858;4.472;2023-09-19T04:07:44;15.10;99.90
23715;DHT22;12036;50.858;4.472;2023-09-19T04:10:10;15.10;99.90
23715;DHT22;12036;50.858;4.472;2023-09-19T04:12:37;15.10;99.90
23715;DHT22;12036;50.858;4.472;2023-09-19T04:15:04;15.10;99.90
23715;DHT22;12036;50.858;4.472;2023-09-19T04:17:30;15.00;99.90
23715;DHT22;12036;50.858;4.472;2023-09-19T04:19:58;15.00;99.90
23715;DHT22;12036;50.858;4.472;2023-09-19T04:22:24;14.80;99.90
23715;DHT22;12036;50.858;4.472;2023-09-19T04:24:50;14.90;99.90
23715;DHT22;12036;50.858;4.472;2023-09-19T04:27:15;14.90;99.90
23715;DHT22;12036;50.858;4.472;2023-09-19T04:29:41;14.80;99.90
23715;DHT22;12036;50.858;4.472;2023-09-19T04:32:07;14.90;99.90
23715;DHT22;12036;50.858;4.472;2023-09-19T04:34:33;14.90;99.90
23715;DHT22;12036;50.858;4.472;2023-09-19T04:37:03;14.80;99.90
23715;DHT22;12036;50.858;4.472;2023-09-19T04:39:29;14.80;99.90
23715;DHT22;12036;50.858;4.472;2023-09-19T04:41:55;14.90;99.90
23715;DHT22;12036;50.858;4.472;2023-09-19T04:44:20;14.80;99.90
23715;DHT22;12036;50.858;4.472;2023-09-19T04:46:46;14.90;99.90
23715;DHT22;12036;50.858;4.472;2023-09-19T04:49:13;14.90;99.90
23715;DHT22;12036;50.858;4.472;2023-09-19T04:51:39;14.90;99.90
23715;DHT22;12036;50.858;4.472;2023-09-19T04:54:05;14.90;99.90
23715;DHT22;12036;50.858;4.472;2023-09-19T04:56:32;15.00;99.90
23715;DHT22;12036;50.858;4.472;2023-09-19T04:59:01;14.90;99.90
23715;DHT22;12036;50.858;4.472;2023-09-19T05:01:26;14.90;99.90
23715;DHT22;12036;50.858;4.472;2023-09-19T05:03:52;14.90;99.90
23715;DHT22;12036;50.858;4.472;2023-09-19T05:06:21;14.90;99.90
23715;DHT22;12036;50.858;4.472;2023-09-19T05:08:50;15.00;99.90
23715;DHT22;12036;50.858;4.472;2023-09-19T05:11:19;14.90;99.90
23715;DHT22;12036;50.858;4.472;2023-09-19T05:13:48;14.80;99.90
23715;DHT22;12036;50.858;4.472;2023-09-19T05:16:18;14.90;99.90
23715;DHT22;12036;50.858;4.472;2023-09-19T05:18:44;14.90;99.90
23715;DHT22;12036;50.858;4.472;2023-09-19T05:21:10;14.80;99.90
23715;DHT22;12036;50.858;4.472;2023-09-19T05:23:36;14.90;99.90
23715;DHT22;12036;50.858;4.472;2023-09-19T05:26:02;14.90;99.90
23715;DHT22;12036;50.858;4.472;2023-09-19T05:28:29;14.90;99.90
23715;DHT22;12036;50.858;4.472;2023-09-19T05:30:55;14.80;99.90
23715;DHT22;12036;50.858;4.472;2023-09-19T05:33:21;14.90;99.90
23715;DHT22;12036;50.858;4.472;2023-09-19T05:35:48;15.00;99.90
23715;DHT22;12036;50.858;4.472;2023-09-19T05:38:14;15.00;99.90
23715;DHT22;12036;50.858;4.472;2023-09-19T05:40:41;14.90;99.90
23715;DHT22;12036;50.858;4.472;2023-09-19T05:43:08;14.80;99.90
23715;DHT22;12036;50.858;4.472;2023-09-19T05:45:34;14.90;99.90
23715;DHT22;12036;50.858;4.472;2023-09-19T05:48:20;14.90;99.90
23715;DHT22;12036;50.858;4.472;2023-09-19T05:50:46;14.90;99.90
23715;DHT22;12036;50.858;4.472;2023-09-19T05:53:12;15.00;99.90
23715;DHT22;12036;50.858;4.472;2023-09-19T05:55:40;15.00;99.90
23715;DHT22;12036;50.858;4.472;2023-09-19T05:58:06;15.00;99.90
23715;DHT22;12036;50.858;4.472;2023-09-19T06:00:32;15.10;99.90
23715;DHT22;12036;50.858;4.472;2023-09-19T06:02:59;15.10;99.90
23715;DHT22;12036;50.858;4.472;2023-09-19T06:05:26;15.10;99.90
23715;DHT22;12036;50.858;4.472;2023-09-19T06:07:52;15.10;99.90
23715;DHT22;12036;50.858;4.472;2023-09-19T06:10:18;15.10;99.90
23715;DHT22;12036;50.858;4.472;2023-09-19T06:12:46;15.10;99.90
23715;DHT22;12036;50.858;4.472;2023-09-19T06:15:13;15.10;99.90
23715;DHT22;12036;50.858;4.472;2023-09-19T06:17:49;15.20;99.90
23715;DHT22;12036;50.858;4.472;2023-09-19T06:20:15;15.30;99.90
23715;DHT22;12036;50.858;4.472;2023-09-19T06:22:43;15.30;99.90
23715;DHT22;12036;50.858;4.472;2023-09-19T06:25:10;15.30;99.90
23715;DHT22;12036;50.858;4.472;2023-09-19T06:27:47;15.30;99.90
23715;DHT22;12036;50.858;4.472;2023-09-19T06:30:30;15.30;99.90
23715;DHT22;12036;50.858;4.472;2023-09-19T06:33:00;15.40;99.90
23715;DHT22;12036;50.858;4.472;2023-09-19T06:35:35;15.50;99.90
23715;DHT22;12036;50.858;4.472;2023-09-19T06:38:03;15.50;99.90
23715;DHT22;12036;50.858;4.472;2023-09-19T06:40:29;15.50;99.90
23715;DHT22;12036;50.858;4.472;2023-09-19T06:42:56;15.60;99.90
23715;DHT22;12036;50.858;4.472;2023-09-19T06:45:22;15.60;99.90
23715;DHT22;12036;50.858;4.472;2023-09-19T06:47:52;15.70;99.90
23715;DHT22;12036;50.858;4.472;2023-09-19T06:50:20;15.70;99.90
23715;DHT22;12036;50.858;4.472;2023-09-19T06:52:49;15.60;99.90
23715;DHT22;12036;50.858;4.472;2023-09-19T06:55:16;15.70;99.90
23715;DHT22;12036;50.858;4.472;2023-09-19T06:57:42;15.80;99.90
23715;DHT22;12036;50.858;4.472;2023-09-19T07:00:12;15.70;99.90
23715;DHT22;12036;50.858;4.472;2023-09-19T07:02:57;15.70;99.90
23715;DHT22;12036;50.858;4.472;2023-09-19T07:05:24;15.80;99.90
23715;DHT22;12036;50.858;4.472;2023-09-19T07:07:50;15.80;99.90
23715;DHT22;12036;50.858;4.472;2023-09-19T07:10:15;15.90;99.90
23715;DHT22;12036;50.858;4.472;2023-09-19T07:12:41;15.90;99.90
23715;DHT22;12036;50.858;4.472;2023-09-19T07:15:07;15.90;99.90
23715;DHT22;12036;50.858;4.472;2023-09-19T07:17:33;15.90;99.90
23715;DHT22;12036;50.858;4.472;2023-09-19T07:19:59;15.80;99.90
23715;DHT22;12036;50.858;4.472;2023-09-19T07:22:26;15.80;99.90
23715;DHT22;12036;50.858;4.472;2023-09-19T07:24:52;16.00;99.90
23715;DHT22;12036;50.858;4.472;2023-09-19T07:27:18;16.00;99.90
23715;DHT22;12036;50.858;4.472;2023-09-19T07:29:43;16.20;99.90
23715;DHT22;12036;50.858;4.472;2023-09-19T07:32:10;16.60;99.90
23715;DHT22;12036;50.858;4.472;2023-09-19T07:34:37;16.80;99.90
23715;DHT22;12036;50.858;4.472;2023-09-19T07:37:04;17.10;99.90
23715;DHT22;12036;50.858;4.472;2023-09-19T07:39:30;17.00;99.90
23715;DHT22;12036;50.858;4.472;2023-09-19T07:41:55;17.20;99.90
23715;DHT22;12036;50.858;4.472;2023-09-19T07:44:22;17.60;99.90
23715;DHT22;12036;50.858;4.472;2023-09-19T07:46:48;17.70;99.90
23715;DHT22;12036;50.858;4.472;2023-09-19T07:49:16;17.60;99.90
23715;DHT22;12036;50.858;4.472;2023-09-19T07:51:43;17.60;99.90
23715;DHT22;12036;50.858;4.472;2023-09-19T07:54:12;17.40;99.90
23715;DHT22;12036;50.858;4.472;2023-09-19T07:56:38;17.40;99.90
23715;DHT22;12036;50.858;4.472;2023-09-19T07:59:07;17.20;99.90
23715;DHT22;12036;50.858;4.472;2023-09-19T08:01:33;17.20;99.90
23715;DHT22;12036;50.858;4.472;2023-09-19T08:04:00;17.10;99.90
23715;DHT22;12036;50.858;4.472;2023-09-19T08:06:26;17.00;99.90
23715;DHT22;12036;50.858;4.472;2023-09-19T08:08:54;16.90;99.90
23715;DHT22;12036;50.858;4.472;2023-09-19T08:11:21;17.00;99.90
23715;DHT22;12036;50.858;4.472;2023-09-19T08:13:49;17.10;99.90
23715;DHT22;12036;50.858;4.472;2023-09-19T08:16:16;17.20;99.90
23715;DHT22;12036;50.858;4.472;2023-09-19T08:18:47;17.20;99.90
23715;DHT22;12036;50.858;4.472;2023-09-19T08:21:13;17.20;99.90
23715;DHT22;12036;50.858;4.472;2023-09-19T08:23:40;17.30;99.90
23715;DHT22;12036;50.858;4.472;2023-09-19T08:26:06;17.30;99.90
23715;DHT22;12036;50.858;4.472;2023-09-19T08:28:34;17.50;99.90
23715;DHT22;12036;50.858;4.472;2023-09-19T08:31:07;17.30;99.90
23715;DHT22;12036;50.858;4.472;2023-09-19T08:33:36;17.50;99.90
23715;DHT22;12036;50.858;4.472;2023-09-19T08:36:03;17.30;99.90
23715;DHT22;12036;50.858;4.472;2023-09-19T08:38:34;17.50;99.90
23715;DHT22;12036;50.858;4.472;2023-09-19T08:41:00;17.50;99.90
23715;DHT22;12036;50.858;4.472;2023-09-19T08:43:27;17.60;99.90
23715;DHT22;12036;50.858;4.472;2023-09-19T08:46:12;17.70;99.90
23715;DHT22;12036;50.858;4.472;2023-09-19T08:48:46;18.00;99.90
23715;DHT22;12036;50.858;4.472;2023-09-19T08:51:22;17.90;99.90
23715;DHT22;12036;50.858;4.472;2023-09-19T08:54:07;17.90;99.90
23715;DHT22;12036;50.858;4.472;2023-09-19T08:56:33;18.00;99.90
23715;DHT22;12036;50.858;4.472;2023-09-19T08:59:06;18.10;99.90
23715;DHT22;12036;50.858;4.472;2023-09-19T09:01:33;18.20;99.90
23715;DHT22;12036;50.858;4.472;2023-09-19T09:04:01;18.10;99.90
23715;DHT22;12036;50.858;4.472;2023-09-19T09:06:28;18.10;99.90
23715;DHT22;12036;50.858;4.472;2023-09-19T09:08:54;18.20;99.90
23715;DHT22;12036;50.858;4.472;2023-09-19T09:11:20;18.20;99.90
23715;DHT22;12036;50.858;4.472;2023-09-19T09:13:47;18.30;99.90
23715;DHT22;12036;50.858;4.472;2023-09-19T09:16:13;18.40;99.90
23715;DHT22;12036;50.858;4.472;2023-09-19T09:18:43;18.60;99.90
23715;DHT22;12036;50.858;4.472;2023-09-19T09:21:10;18.60;99.90
23715;DHT22;12036;50.858;4.472;2023-09-19T09:23:35;18.70;99.90
23715;DHT22;12036;50.858;4.472;2023-09-19T09:26:01;18.90;99.90
23715;DHT22;12036;50.858;4.472;2023-09-19T09:28:32;19.20;99.90
23715;DHT22;12036;50.858;4.472;2023-09-19T09:31:04;19.20;99.90
23715;DHT22;12036;50.858;4.472;2023-09-19T09:33:35;19.00;99.90
23715;DHT22;12036;50.858;4.472;2023-09-19T09:36:02;19.10;99.90
23715;DHT22;12036;50.858;4.472;2023-09-19T09:38:49;19.20;99.90
23715;DHT22;12036;50.858;4.472;2023-09-19T09:41:16;19.20;99.90
23715;DHT22;12036;50.858;4.472;2023-09-19T09:43:53;19.40;99.90
23715;DHT22;12036;50.858;4.472;2023-09-19T09:46:20;19.30;99.90
23715;DHT22;12036;50.858;4.472;2023-09-19T09:51:49;19.50;99.90
23715;DHT22;12036;50.858;4.472;2023-09-19T09:54:25;19.40;99.90
23715;DHT22;12036;50.858;4.472;2023-09-19T09:57:00;19.40;99.90
23715;DHT22;12036;50.858;4.472;2023-09-19T09:59:46;19.20;99.90
23715;DHT22;12036;50.858;4.472;2023-09-19T10:02:17;19.10;99.90
23715;DHT22;12036;50.858;4.472;2023-09-19T10:04:58;19.00;99.90
23715;DHT22;12036;50.858;4.472;2023-09-19T10:07:44;18.80;99.90
23715;DHT22;12036;50.858;4.472;2023-09-19T10:10:35;18.90;99.90
23715;DHT22;12036;50.858;4.472;2023-09-19T10:13:08;19.00;99.90
23715;DHT22;12036;50.858;4.472;2023-09-19T10:15:39;19.20;99.90
23715;DHT22;12036;50.858;4.472;2023-09-19T10:18:10;19.10;99.90
23715;DHT22;12036;50.858;4.472;2023-09-19T10:20:39;19.10;99.90
23715;DHT22;12036;50.858;4.472;2023-09-19T10:23:09;19.00;99.90
23715;DHT22;12036;50.858;4.472;2023-09-19T10:25:38;19.00;99.90
23715;DHT22;12036;50.858;4.472;2023-09-19T10:28:06;19.10;99.90
23715;DHT22;12036;50.858;4.472;2023-09-19T10:30:46;19.20;99.90
23715;DHT22;12036;50.858;4.472;2023-09-19T10:33:15;19.30;99.90
23715;DHT22;12036;50.858;4.472;2023-09-19T10:35:48;19.40;99.90
23715;DHT22;12036;50.858;4.472;2023-09-19T10:38:17;19.50;99.90
23715;DHT22;12036;50.858;4.472;2023-09-19T10:40:51;19.40;99.90
23715;DHT22;12036;50.858;4.472;2023-09-19T10:43:20;19.30;99.90
23715;DHT22;12036;50.858;4.472;2023-09-19T10:45:48;19.40;99.90
23715;DHT22;12036;50.858;4.472;2023-09-19T10:48:15;19.60;99.90
23715;DHT22;12036;50.858;4.472;2023-09-19T10:50:48;19.80;99.90
23715;DHT22;12036;50.858;4.472;2023-09-19T10:53:15;19.90;99.90
23715;DHT22;12036;50.858;4.472;2023-09-19T10:55:52;20.20;99.90
23715;DHT22;12036;50.858;4.472;2023-09-19T10:58:45;20.70;99.90
23715;DHT22;12036;50.858;4.472;2023-09-19T11:01:11;20.80;99.90
23715;DHT22;12036;50.858;4.472;2023-09-19T11:03:38;21.00;99.80
23715;DHT22;12036;50.858;4.472;2023-09-19T11:09:02;21.10;99.70
23715;DHT22;12036;50.858;4.472;2023-09-19T11:30:37;22.50;97.60
23715;DHT22;12036;50.858;4.472;2023-09-19T11:49:13;21.20;98.40
23715;DHT22;12036;50.858;4.472;2023-09-19T11:51:46;21.20;98.90
23715;DHT22;12036;50.858;4.472;2023-09-19T11:54:13;21.20;99.30
23715;DHT22;12036;50.858;4.472;2023-09-19T11:56:44;21.10;99.10
23715;DHT22;12036;50.858;4.472;2023-09-19T11:59:11;21.10;99.00
23715;DHT22;12036;50.858;4.472;2023-09-19T12:01:38;21.20;99.00
23715;DHT22;12036;50.858;4.472;2023-09-19T12:04:11;20.90;99.00
23715;DHT22;12036;50.858;4.472;2023-09-19T12:06:37;20.80;99.30
23715;DHT22;12036;50.858;4.472;2023-09-19T12:09:12;20.80;99.80
23715;DHT22;12036;50.858;4.472;2023-09-19T12:11:43;20.80;99.50
23715;DHT22;12036;50.858;4.472;2023-09-19T12:14:11;20.80;99.90
23715;DHT22;12036;50.858;4.472;2023-09-19T12:16:54;20.70;99.60
23715;DHT22;12036;50.858;4.472;2023-09-19T12:19:22;20.50;99.90
23715;DHT22;12036;50.858;4.472;2023-09-19T12:21:59;20.30;99.90
23715;DHT22;12036;50.858;4.472;2023-09-19T12:24:29;20.20;99.90
23715;DHT22;12036;50.858;4.472;2023-09-19T12:27:04;20.40;99.90
23715;DHT22;12036;50.858;4.472;2023-09-19T12:29:42;20.40;99.90
23715;DHT22;12036;50.858;4.472;2023-09-19T12:32:09;20.50;99.90
23715;DHT22;12036;50.858;4.472;2023-09-19T12:34:35;20.50;99.90
23715;DHT22;12036;50.858;4.472;2023-09-19T12:37:13;20.70;99.90
23715;DHT22;12036;50.858;4.472;2023-09-19T12:39:53;20.80;99.90
23715;DHT22;12036;50.858;4.472;2023-09-19T12:42:24;20.80;99.90
23715;DHT22;12036;50.858;4.472;2023-09-19T12:44:54;20.80;99.90
23715;DHT22;12036;50.858;4.472;2023-09-19T12:47:23;20.70;99.70
23715;DHT22;12036;50.858;4.472;2023-09-19T12:52:44;20.50;99.90
23715;DHT22;12036;50.858;4.472;2023-09-19T12:55:29;20.60;99.90
23715;DHT22;12036;50.858;4.472;2023-09-19T12:58:00;20.70;99.90
23715;DHT22;12036;50.858;4.472;2023-09-19T13:00:41;20.70;99.90
23715;DHT22;12036;50.858;4.472;2023-09-19T13:03:18;20.90;99.90
23715;DHT22;12036;50.858;4.472;2023-09-19T13:06:05;20.90;99.90
23715;DHT22;12036;50.858;4.472;2023-09-19T13:08:34;20.70;99.90
23715;DHT22;12036;50.858;4.472;2023-09-19T13:11:05;20.70;99.90
23715;DHT22;12036;50.858;4.472;2023-09-19T13:13:44;20.80;99.90
23715;DHT22;12036;50.858;4.472;2023-09-19T13:16:11;20.80;99.90
23715;DHT22;12036;50.858;4.472;2023-09-19T13:18:44;20.80;99.90
23715;DHT22;12036;50.858;4.472;2023-09-19T13:21:12;20.80;99.90
23715;DHT22;12036;50.858;4.472;2023-09-19T13:23:43;20.80;99.90
23715;DHT22;12036;50.858;4.472;2023-09-19T13:26:12;20.70;99.90
23715;DHT22;12036;50.858;4.472;2023-09-19T13:28:38;20.70;99.90
23715;DHT22;12036;50.858;4.472;2023-09-19T13:31:04;20.70;99.90
23715;DHT22;12036;50.858;4.472;2023-09-19T13:33:30;20.80;99.90
23715;DHT22;12036;50.858;4.472;2023-09-19T13:35:56;20.70;99.90
23715;DHT22;12036;50.858;4.472;2023-09-19T13:38:22;20.90;99.90
23715;DHT22;12036;50.858;4.472;2023-09-19T13:40:48;21.00;99.90
23715;DHT22;12036;50.858;4.472;2023-09-19T13:43:15;21.00;99.90
23715;DHT22;12036;50.858;4.472;2023-09-19T13:45:41;20.80;99.90
23715;DHT22;12036;50.858;4.472;2023-09-19T13:48:09;20.70;99.90
23715;DHT22;12036;50.858;4.472;2023-09-19T13:50:37;20.70;99.90
23715;DHT22;12036;50.858;4.472;2023-09-19T13:53:08;20.80;99.90
23715;DHT22;12036;50.858;4.472;2023-09-19T13:55:34;20.70;99.90
23715;DHT22;12036;50.858;4.472;2023-09-19T13:58:00;20.70;99.90
23715;DHT22;12036;50.858;4.472;2023-09-19T14:00:25;20.70;99.90
23715;DHT22;12036;50.858;4.472;2023-09-19T14:02:52;20.70;99.90
23715;DHT22;12036;50.858;4.472;2023-09-19T14:05:18;20.60;99.90
23715;DHT22;12036;50.858;4.472;2023-09-19T14:07:44;20.70;99.90
23715;DHT22;12036;50.858;4.472;2023-09-19T14:10:11;20.50;99.90
23715;DHT22;12036;50.858;4.472;2023-09-19T14:12:37;20.50;99.90
23715;DHT22;12036;50.858;4.472;2023-09-19T14:15:10;20.40;99.90
23715;DHT22;12036;50.858;4.472;2023-09-19T14:17:36;20.40;99.90
23715;DHT22;12036;50.858;4.472;2023-09-19T14:20:02;20.50;99.90
23715;DHT22;12036;50.858;4.472;2023-09-19T14:22:27;20.40;99.90
23715;DHT22;12036;50.858;4.472;2023-09-19T14:24:53;20.40;99.90
23715;DHT22;12036;50.858;4.472;2023-09-19T14:27:20;20.40;99.90
23715;DHT22;12036;50.858;4.472;2023-09-19T14:29:45;20.60;99.90
23715;DHT22;12036;50.858;4.472;2023-09-19T14:32:11;20.80;99.90
23715;DHT22;12036;50.858;4.472;2023-09-19T14:34:37;20.80;99.90
23715;DHT22;12036;50.858;4.472;2023-09-19T14:37:07;20.80;99.90
23715;DHT22;12036;50.858;4.472;2023-09-19T14:39:33;20.80;99.90
23715;DHT22;12036;50.858;4.472;2023-09-19T14:41:59;20.80;99.90
23715;DHT22;12036;50.858;4.472;2023-09-19T14:44:24;20.90;99.90
23715;DHT22;12036;50.858;4.472;2023-09-19T14:46:50;21.10;99.90
23715;DHT22;12036;50.858;4.472;2023-09-19T14:49:16;21.20;99.90
23715;DHT22;12036;50.858;4.472;2023-09-19T14:51:42;21.30;99.90
23715;DHT22;12036;50.858;4.472;2023-09-19T14:54:13;21.40;99.90
23715;DHT22;12036;50.858;4.472;2023-09-19T14:56:42;21.30;99.90
23715;DHT22;12036;50.858;4.472;2023-09-19T14:59:08;20.90;99.90
23715;DHT22;12036;50.858;4.472;2023-09-19T15:01:36;20.80;99.90
23715;DHT22;12036;50.858;4.472;2023-09-19T15:04:02;20.90;99.90
23715;DHT22;12036;50.858;4.472;2023-09-19T15:06:27;20.80;99.90
23715;DHT22;12036;50.858;4.472;2023-09-19T15:08:53;20.70;99.90
23715;DHT22;12036;50.858;4.472;2023-09-19T15:11:19;20.60;99.90
23715;DHT22;12036;50.858;4.472;2023-09-19T15:13:47;20.50;99.90
23715;DHT22;12036;50.858;4.472;2023-09-19T15:16:13;20.50;99.90
23715;DHT22;12036;50.858;4.472;2023-09-19T15:18:44;20.60;99.90
23715;DHT22;12036;50.858;4.472;2023-09-19T15:21:13;20.60;99.90
23715;DHT22;12036;50.858;4.472;2023-09-19T15:23:43;20.70;99.90
23715;DHT22;12036;50.858;4.472;2023-09-19T15:26:11;20.60;99.90
23715;DHT22;12036;50.858;4.472;2023-09-19T15:28:37;20.50;99.90
23715;DHT22;12036;50.858;4.472;2023-09-19T15:31:05;20.40;99.90
23715;DHT22;12036;50.858;4.472;2023-09-19T15:33:32;20.40;99.90
23715;DHT22;12036;50.858;4.472;2023-09-19T15:36:12;20.40;99.90
23715;DHT22;12036;50.858;4.472;2023-09-19T15:39:08;20.40;99.90
23715;DHT22;12036;50.858;4.472;2023-09-19T15:41:40;20.30;99.90
23715;DHT22;12036;50.858;4.472;2023-09-19T15:44:19;20.30;99.90
23715;DHT22;12036;50.858;4.472;2023-09-19T15:46:45;20.20;99.90
23715;DHT22;12036;50.858;4.472;2023-09-19T15:49:12;20.10;99.90
23715;DHT22;12036;50.858;4.472;2023-09-19T15:51:38;20.00;99.90
23715;DHT22;12036;50.858;4.472;2023-09-19T15:54:14;20.00;99.90
23715;DHT22;12036;50.858;4.472;2023-09-19T15:56:44;20.00;99.90
23715;DHT22;12036;50.858;4.472;2023-09-19T15:59:10;20.00;99.90
23715;DHT22;12036;50.858;4.472;2023-09-19T16:01:38;19.90;99.90
23715;DHT22;12036;50.858;4.472;2023-09-19T16:04:06;20.00;99.90
23715;DHT22;12036;50.858;4.472;2023-09-19T16:06:35;19.80;99.90
23715;DHT22;12036;50.858;4.472;2023-09-19T16:09:01;19.70;99.90
23715;DHT22;12036;50.858;4.472;2023-09-19T16:11:30;19.70;99.90
23715;DHT22;12036;50.858;4.472;2023-09-19T16:13:57;19.70;99.90
23715;DHT22;12036;50.858;4.472;2023-09-19T16:16:25;19.70;99.90
23715;DHT22;12036;50.858;4.472;2023-09-19T16:18:54;19.70;99.90
23715;DHT22;12036;50.858;4.472;2023-09-19T16:21:23;19.70;99.90
23715;DHT22;12036;50.858;4.472;2023-09-19T16:23:50;19.70;99.90
23715;DHT22;12036;50.858;4.472;2023-09-19T16:26:17;19.70;99.90
23715;DHT22;12036;50.858;4.472;2023-09-19T16:28:46;19.70;99.90
23715;DHT22;12036;50.858;4.472;2023-09-19T16:31:13;19.70;99.90
23715;DHT22;12036;50.858;4.472;2023-09-19T16:33:44;19.60;99.90